Time;durP1;ratioP1;P1;durP2;ratioP2;P2;SDS_P1;SDS_P2;PMS_P1;PMS_P2;Temp;Humidity;BMP_temperature;BMP_pressure;BME280_temperature;BME280_humidity;BME280_pressure;Samples;Min_cycle;Max_cycle;Signal;HPM_P1;HPM_P2
2022/03/14 00:01:17;;;;;;;17.17;14.90;;;5.20;1.00;;;;;;5118431;27;20226;-87
2022/03/14 00:03:47;;;;;;;19.08;14.00;;;5.20;1.00;;;;;;5117854;27;20297;-87
2022/03/14 00:06:15;;;;;;;19.83;15.88;;;5.20;1.00;;;;;;5118372;27;20711;-87
2022/03/14 00:08:44;;;;;;;20.80;14.50;;;5.10;1.00;;;;;;5114114;27;21670;-88
2022/03/14 00:11:14;;;;;;;21.23;14.35;;;5.00;1.00;;;;;;5122153;27;20291;-87
2022/03/14 00:13:43;;;;;;;18.83;14.00;;;5.00;1.00;;;;;;5123637;27;20250;-88
2022/03/14 00:16:16;;;;;;;21.52;15.85;;;5.00;1.00;;;;;;5122812;27;20231;-88
2022/03/14 00:18:48;;;;;;;23.05;16.38;;;5.00;1.00;;;;;;5119693;27;20246;-87
2022/03/14 00:21:16;;;;;;;19.08;13.70;;;4.90;1.00;;;;;;5119656;27;20303;-88
2022/03/14 00:23:44;;;;;;;19.25;14.70;;;4.90;1.00;;;;;;5129465;27;20243;-87
2022/03/14 00:26:11;;;;;;;19.75;14.55;;;4.90;1.00;;;;;;5122674;27;20966;-87
2022/03/14 00:28:39;;;;;;;22.23;15.57;;;4.90;1.00;;;;;;5122801;27;20226;-87
2022/03/14 00:31:08;;;;;;;19.85;14.55;;;4.90;1.00;;;;;;5119697;27;20279;-88
2022/03/14 00:33:39;;;;;;;21.35;15.57;;;4.80;1.00;;;;;;5118727;27;20252;-87
2022/03/14 00:36:11;;;;;;;21.17;15.45;;;4.80;1.00;;;;;;5119449;27;20299;-87
2022/03/14 00:38:40;;;;;;;23.23;15.32;;;4.80;1.00;;;;;;5122637;27;20326;-87
2022/03/14 00:41:08;;;;;;;18.17;14.80;;;4.80;1.00;;;;;;5117691;27;20253;-87
2022/03/14 00:43:38;;;;;;;21.08;15.10;;;4.70;1.00;;;;;;5124719;27;20239;-87
2022/03/14 00:46:08;;;;;;;19.15;16.55;;;4.70;1.00;;;;;;5123986;27;20326;-88
2022/03/14 00:48:36;;;;;;;20.08;15.63;;;4.70;1.00;;;;;;5121489;27;20227;-88
2022/03/14 00:51:07;;;;;;;18.05;15.07;;;4.70;1.00;;;;;;5119590;27;20211;-88
2022/03/14 00:53:36;;;;;;;23.20;15.60;;;4.60;1.00;;;;;;5126416;27;20310;-87
2022/03/14 00:56:03;;;;;;;20.48;15.32;;;4.60;1.00;;;;;;5142588;27;20223;-88
2022/03/14 00:58:35;;;;;;;20.50;15.00;;;4.60;1.00;;;;;;5144542;27;20230;-88
2022/03/14 01:01:06;;;;;;;22.33;15.35;;;4.60;1.00;;;;;;5129578;27;20227;-89
2022/03/14 01:03:34;;;;;;;22.30;15.60;;;4.60;1.00;;;;;;5122193;27;20293;-87
2022/03/14 01:06:01;;;;;;;18.55;15.45;;;4.50;1.00;;;;;;5124378;27;20219;-87
2022/03/14 01:08:28;;;;;;;21.88;14.88;;;4.50;1.00;;;;;;5117281;27;20288;-87
2022/03/14 01:10:57;;;;;;;22.10;15.82;;;4.50;1.00;;;;;;5110821;27;20302;-87
2022/03/14 01:13:25;;;;;;;17.60;15.43;;;4.40;1.00;;;;;;5118754;27;20917;-87
2022/03/14 01:15:52;;;;;;;21.02;16.45;;;4.40;1.00;;;;;;5120110;27;20259;-86
2022/03/14 01:18:19;;;;;;;22.58;15.32;;;4.40;1.00;;;;;;5120075;27;20290;-87
2022/03/14 01:20:49;;;;;;;20.45;15.23;;;4.30;1.00;;;;;;5127125;27;21489;-87
2022/03/14 01:23:16;;;;;;;19.30;14.95;;;4.30;1.00;;;;;;5140299;27;20226;-87
2022/03/14 01:25:45;;;;;;;18.60;14.82;;;4.30;1.00;;;;;;5148719;27;20266;-83
2022/03/14 01:28:15;;;;;;;17.95;14.35;;;4.20;1.00;;;;;;5148858;27;20225;-86
2022/03/14 01:30:44;;;;;;;20.90;15.88;;;4.20;1.00;;;;;;5134499;27;20219;-85
2022/03/14 01:33:14;;;;;;;21.25;16.05;;;4.20;1.00;;;;;;5142512;27;20283;-88
2022/03/14 01:35:42;;;;;;;21.42;14.13;;;4.10;1.00;;;;;;5152886;27;20215;-87
2022/03/14 01:38:09;;;;;;;19.88;15.10;;;4.10;1.00;;;;;;5149024;27;20242;-87
2022/03/14 01:40:39;;;;;;;21.05;15.50;;;4.10;1.00;;;;;;5148494;27;20241;-88
2022/03/14 01:43:06;;;;;;;21.70;16.15;;;4.10;1.00;;;;;;5142194;27;20265;-87
2022/03/14 01:45:36;;;;;;;22.30;14.98;;;4.10;1.00;;;;;;5153081;27;20207;-87
2022/03/14 01:48:09;;;;;;;20.17;16.20;;;4.00;1.00;;;;;;5136494;27;20211;-86
2022/03/14 01:50:36;;;;;;;23.25;16.75;;;4.00;1.00;;;;;;5123513;27;20242;-86
2022/03/14 01:53:04;;;;;;;19.98;14.68;;;4.00;1.00;;;;;;5125640;27;20227;-86
2022/03/14 01:55:34;;;;;;;20.00;15.75;;;4.00;1.00;;;;;;5126569;27;20287;-87
2022/03/14 01:58:03;;;;;;;17.90;14.45;;;3.90;1.00;;;;;;5142585;27;20238;-86
2022/03/14 02:00:31;;;;;;;20.60;14.88;;;4.00;1.00;;;;;;5123507;27;20685;-87
2022/03/14 02:03:03;;;;;;;19.05;15.00;;;3.90;1.00;;;;;;5124236;27;20227;-87
2022/03/14 02:05:32;;;;;;;21.63;15.27;;;3.90;1.00;;;;;;5133118;27;20203;-86
2022/03/14 02:07:59;;;;;;;18.85;15.80;;;3.90;1.00;;;;;;5141799;27;20227;-86
2022/03/14 02:10:27;;;;;;;22.60;16.73;;;3.80;1.00;;;;;;5140129;27;20281;-85
2022/03/14 02:12:58;;;;;;;20.85;15.23;;;3.80;1.00;;;;;;5135344;27;20287;-86
2022/03/14 02:15:25;;;;;;;20.15;15.43;;;3.70;1.00;;;;;;5137039;27;20227;-87
2022/03/14 02:17:53;;;;;;;20.00;14.80;;;3.80;1.00;;;;;;5124911;27;20644;-87
2022/03/14 02:20:26;;;;;;;17.42;14.98;;;3.80;1.00;;;;;;5122368;27;20231;-85
2022/03/14 02:22:56;;;;;;;21.10;15.38;;;3.80;1.00;;;;;;5125783;27;20299;-85
2022/03/14 02:25:34;;;;;;;18.98;15.73;;;3.70;1.00;;;;;;5126193;27;20229;-85
2022/03/14 02:28:02;;;;;;;22.58;15.30;;;3.80;1.00;;;;;;5121124;27;20247;-84
2022/03/14 02:30:35;;;;;;;20.83;14.88;;;3.80;1.00;;;;;;5123691;27;20234;-84
2022/03/14 02:33:03;;;;;;;19.92;14.55;;;3.70;1.00;;;;;;5124928;27;20316;-85
2022/03/14 02:35:39;;;;;;;21.45;14.90;;;3.70;1.00;;;;;;5126087;27;21907;-85
2022/03/14 02:38:12;;;;;;;20.83;15.73;;;3.70;1.00;;;;;;5121558;27;20285;-85
2022/03/14 02:40:40;;;;;;;17.80;14.23;;;3.70;1.00;;;;;;5128453;27;20312;-84
2022/03/14 02:43:08;;;;;;;25.88;16.23;;;3.60;1.00;;;;;;5126613;27;20230;-84
2022/03/14 02:45:35;;;;;;;23.27;15.48;;;3.60;1.00;;;;;;5121934;27;21057;-84
2022/03/14 02:48:02;;;;;;;22.30;15.82;;;3.60;1.00;;;;;;5129235;27;21001;-82
2022/03/14 02:50:29;;;;;;;19.73;14.80;;;3.60;1.00;;;;;;5124283;27;20245;-83
2022/03/14 02:52:57;;;;;;;20.60;16.02;;;3.60;1.00;;;;;;5125752;27;20227;-84
2022/03/14 02:55:25;;;;;;;21.85;16.17;;;3.60;1.00;;;;;;5153875;27;20208;-83
2022/03/14 02:57:51;;;;;;;19.73;16.77;;;3.60;1.00;;;;;;5152919;27;20238;-82
2022/03/14 03:00:18;;;;;;;22.00;15.20;;;3.60;1.00;;;;;;5140408;27;20224;-83
2022/03/14 03:02:46;;;;;;;22.58;16.98;;;3.60;1.00;;;;;;5128828;27;20292;-83
2022/03/14 03:05:13;;;;;;;19.45;14.80;;;3.50;1.00;;;;;;5122990;27;20262;-82
2022/03/14 03:07:42;;;;;;;19.98;15.30;;;3.50;1.00;;;;;;5126480;27;20311;-84
2022/03/14 03:10:11;;;;;;;22.20;15.13;;;3.50;1.00;;;;;;5132358;27;20214;-83
2022/03/14 03:12:40;;;;;;;21.95;15.55;;;3.60;1.00;;;;;;5132582;27;20334;-84
2022/03/14 03:15:08;;;;;;;21.77;15.55;;;3.50;1.00;;;;;;5129077;27;20284;-84
2022/03/14 03:17:35;;;;;;;19.65;14.80;;;3.50;1.00;;;;;;5129523;27;20288;-84
2022/03/14 03:20:03;;;;;;;19.65;15.10;;;3.50;1.00;;;;;;5128356;27;20359;-84
2022/03/14 03:22:30;;;;;;;22.70;15.90;;;3.60;1.00;;;;;;5131666;27;21497;-85
2022/03/14 03:24:57;;;;;;;18.42;15.38;;;3.60;1.00;;;;;;5146036;27;20231;-84
2022/03/14 03:27:25;;;;;;;19.80;16.20;;;3.60;1.00;;;;;;5139051;27;20291;-84
2022/03/14 03:29:55;;;;;;;19.25;14.68;;;3.60;1.00;;;;;;5123565;27;20323;-84
2022/03/14 03:32:22;;;;;;;23.88;15.85;;;3.60;1.00;;;;;;5130425;27;20242;-82
2022/03/14 03:34:48;;;;;;;20.52;15.32;;;3.60;1.00;;;;;;5128256;27;20986;-83
2022/03/14 03:37:16;;;;;;;23.65;16.65;;;3.60;1.00;;;;;;5124878;27;20231;-82
2022/03/14 03:39:44;;;;;;;21.38;15.25;;;3.60;1.00;;;;;;5127246;27;20235;-83
2022/03/14 03:42:11;;;;;;;20.77;14.70;;;3.60;1.00;;;;;;5123414;27;20219;-83
2022/03/14 03:44:40;;;;;;;19.75;15.35;;;3.60;1.00;;;;;;5126886;27;20228;-84
2022/03/14 03:47:07;;;;;;;21.30;15.23;;;3.60;1.00;;;;;;5125519;27;20337;-85
2022/03/14 03:49:34;;;;;;;22.05;14.70;;;3.60;1.00;;;;;;5128478;27;20790;-86
2022/03/14 03:52:01;;;;;;;21.75;15.15;;;3.60;1.00;;;;;;5129033;27;21058;-85
2022/03/14 03:54:28;;;;;;;19.52;15.20;;;3.60;1.00;;;;;;5130373;27;20235;-84
2022/03/14 03:56:54;;;;;;;19.58;15.48;;;3.60;1.00;;;;;;5129443;27;20207;-84
2022/03/14 03:59:22;;;;;;;21.10;16.50;;;3.50;1.00;;;;;;5137400;27;20234;-84
2022/03/14 04:01:52;;;;;;;20.00;13.77;;;3.50;1.00;;;;;;5139747;27;20269;-84
2022/03/14 04:04:19;;;;;;;18.63;13.98;;;3.50;1.00;;;;;;5139014;27;20207;-83
2022/03/14 04:06:47;;;;;;;19.25;14.82;;;3.50;1.00;;;;;;5139180;27;20224;-83
2022/03/14 04:09:14;;;;;;;21.55;15.50;;;3.40;1.00;;;;;;5136110;27;20238;-83
2022/03/14 04:11:41;;;;;;;21.48;16.02;;;3.40;1.00;;;;;;5129079;27;20210;-84
2022/03/14 04:14:09;;;;;;;22.80;15.68;;;3.40;1.00;;;;;;5129846;27;20259;-84
2022/03/14 04:16:38;;;;;;;25.83;16.23;;;3.40;1.00;;;;;;5125946;27;20219;-84
2022/03/14 04:19:06;;;;;;;20.45;14.20;;;3.40;1.00;;;;;;5116410;27;20350;-85
2022/03/14 04:21:36;;;;;;;20.45;14.68;;;3.40;1.00;;;;;;5118183;27;20227;-85
2022/03/14 04:24:05;;;;;;;26.02;15.80;;;3.30;1.00;;;;;;5127941;27;20219;-82
2022/03/14 04:26:32;;;;;;;19.95;14.65;;;3.40;1.00;;;;;;5122481;27;20241;-82
2022/03/14 04:28:59;;;;;;;24.58;17.50;;;3.30;1.00;;;;;;5122765;27;20235;-82
2022/03/14 04:31:26;;;;;;;22.02;15.43;;;3.30;1.00;;;;;;5125215;27;20248;-82
2022/03/14 04:33:53;;;;;;;20.60;15.77;;;3.30;1.00;;;;;;5123513;27;20295;-82
2022/03/14 04:36:21;;;;;;;25.08;16.52;;;3.30;1.00;;;;;;5123658;27;20230;-83
2022/03/14 04:38:48;;;;;;;17.25;14.55;;;3.20;1.00;;;;;;5121799;27;20235;-83
2022/03/14 04:41:15;;;;;;;23.02;17.17;;;3.20;1.00;;;;;;5125799;27;20227;-83
2022/03/14 04:43:42;;;;;;;27.33;18.27;;;3.10;1.00;;;;;;5126985;27;20280;-83
2022/03/14 04:46:09;;;;;;;23.83;16.05;;;3.20;1.00;;;;;;5128158;27;20226;-83
2022/03/14 04:48:36;;;;;;;24.40;16.90;;;3.10;1.00;;;;;;5126234;27;20231;-84
2022/03/14 04:51:04;;;;;;;21.40;16.52;;;3.10;1.00;;;;;;5134986;27;20222;-82
2022/03/14 04:53:32;;;;;;;21.27;15.70;;;3.00;1.00;;;;;;5141362;27;20227;-83
2022/03/14 04:55:59;;;;;;;32.47;20.52;;;3.00;1.00;;;;;;5131184;27;20237;-82
2022/03/14 04:58:26;;;;;;;22.35;16.63;;;2.90;1.00;;;;;;5130966;27;20295;-84
2022/03/14 05:00:54;;;;;;;24.70;16.13;;;2.90;1.00;;;;;;5125631;27;20661;-85
2022/03/14 05:03:22;;;;;;;27.50;16.83;;;2.90;1.00;;;;;;5113461;27;20223;-85
2022/03/14 05:05:49;;;;;;;23.83;16.90;;;2.80;1.00;;;;;;5124465;27;20241;-84
2022/03/14 05:08:15;;;;;;;23.75;17.92;;;2.80;1.00;;;;;;5121275;27;20307;-84
2022/03/14 05:10:44;;;;;;;20.33;15.93;;;2.90;1.00;;;;;;5124141;27;20287;-84
2022/03/14 05:13:11;;;;;;;23.17;18.48;;;2.80;1.00;;;;;;5118518;27;20228;-83
2022/03/14 05:15:39;;;;;;;25.63;18.10;;;2.80;1.00;;;;;;5125590;27;20329;-84
2022/03/14 05:18:05;;;;;;;25.05;16.63;;;2.80;1.00;;;;;;5123251;27;20245;-83
2022/03/14 05:20:37;;;;;;;25.30;17.42;;;2.70;1.00;;;;;;5124072;27;20993;-83
2022/03/14 05:23:05;;;;;;;20.17;16.40;;;2.70;1.00;;;;;;5127634;27;21533;-84
2022/03/14 05:25:32;;;;;;;23.35;18.75;;;2.70;1.00;;;;;;5120149;27;20281;-83
2022/03/14 05:28:00;;;;;;;21.83;15.40;;;2.70;1.00;;;;;;5118733;27;20253;-83
2022/03/14 05:30:27;;;;;;;27.70;18.25;;;2.70;1.00;;;;;;5125226;27;20223;-82
2022/03/14 05:32:55;;;;;;;22.45;15.95;;;2.60;1.00;;;;;;5129357;27;20231;-84
2022/03/14 05:35:22;;;;;;;24.05;17.23;;;2.60;1.00;;;;;;5133107;27;20348;-83
2022/03/14 05:37:50;;;;;;;25.77;17.80;;;2.60;1.00;;;;;;5132336;27;21137;-85
2022/03/14 05:40:20;;;;;;;26.83;18.15;;;2.60;1.00;;;;;;5130011;27;20235;-84
2022/03/14 05:42:48;;;;;;;25.63;16.75;;;2.60;1.00;;;;;;5139140;27;21024;-86
2022/03/14 05:45:19;;;;;;;22.90;16.85;;;2.70;1.00;;;;;;5136312;27;20639;-83
2022/03/14 05:47:51;;;;;;;24.73;17.35;;;2.70;1.00;;;;;;5133320;27;20280;-82
2022/03/14 05:50:19;;;;;;;22.02;16.90;;;2.70;1.00;;;;;;5142544;27;20221;-83
2022/03/14 05:52:46;;;;;;;25.92;18.40;;;2.70;1.00;;;;;;5147171;27;20215;-84
2022/03/14 05:55:13;;;;;;;26.02;18.10;;;2.70;1.00;;;;;;5130306;27;20228;-81
2022/03/14 05:57:40;;;;;;;31.92;18.30;;;2.70;1.00;;;;;;5133970;27;20215;-85
2022/03/14 06:00:09;;;;;;;28.05;17.60;;;2.70;1.00;;;;;;5150135;27;20306;-79
2022/03/14 06:02:38;;;;;;;26.73;18.80;;;2.70;1.00;;;;;;5147839;27;20259;-78
2022/03/14 06:05:06;;;;;;;24.15;17.25;;;2.80;1.00;;;;;;5145991;27;20239;-79
2022/03/14 06:07:33;;;;;;;23.73;16.50;;;2.70;1.00;;;;;;5147842;27;20243;-80
2022/03/14 06:10:00;;;;;;;22.92;16.50;;;2.80;1.00;;;;;;5147664;27;20219;-80
2022/03/14 06:12:28;;;;;;;26.25;18.33;;;2.80;1.00;;;;;;5145411;27;20211;-78
2022/03/14 06:14:55;;;;;;;25.50;18.73;;;2.80;1.00;;;;;;5145819;27;20215;-78
2022/03/14 06:17:22;;;;;;;27.02;17.88;;;2.80;1.00;;;;;;5145423;27;20246;-77
2022/03/14 06:19:52;;;;;;;28.48;19.27;;;2.80;1.00;;;;;;5141783;27;20271;-81
2022/03/14 06:22:23;;;;;;;30.70;19.90;;;2.90;1.00;;;;;;5141883;27;20242;-79
2022/03/14 06:24:50;;;;;;;25.42;17.42;;;2.90;1.00;;;;;;5129057;27;20226;-81
2022/03/14 06:27:19;;;;;;;30.17;19.60;;;3.00;1.00;;;;;;5130059;27;20307;-81
2022/03/14 06:29:48;;;;;;;26.30;17.88;;;3.10;1.00;;;;;;5125383;27;20215;-79
2022/03/14 06:32:16;;;;;;;26.20;18.20;;;3.10;1.00;;;;;;5130292;27;20226;-79
2022/03/14 06:34:44;;;;;;;23.90;18.33;;;3.20;1.00;;;;;;5134497;27;20224;-78
2022/03/14 06:37:12;;;;;;;23.13;17.77;;;3.30;1.00;;;;;;5124304;27;20219;-77
2022/03/14 06:39:40;;;;;;;24.25;17.48;;;3.30;1.00;;;;;;5124793;27;20222;-77
2022/03/14 06:42:09;;;;;;;36.05;32.45;;;3.40;1.00;;;;;;5132750;27;20235;-78
2022/03/14 06:44:38;;;;;;;24.60;17.77;;;3.80;1.00;;;;;;5124687;27;20228;-78
2022/03/14 06:47:07;;;;;;;25.92;18.98;;;3.90;1.00;;;;;;5125000;27;20241;-80
2022/03/14 06:49:35;;;;;;;24.05;18.75;;;3.90;1.00;;;;;;5128905;27;20220;-80
2022/03/14 06:52:02;;;;;;;27.17;17.75;;;4.00;1.00;;;;;;5134222;27;20222;-78
2022/03/14 06:54:30;;;;;;;25.38;17.88;;;4.00;1.00;;;;;;5130806;27;20403;-78
2022/03/14 06:56:58;;;;;;;25.10;18.30;;;4.10;1.00;;;;;;5131129;27;20223;-79
2022/03/14 06:59:26;;;;;;;26.30;18.75;;;4.20;1.00;;;;;;5129249;27;20413;-81
2022/03/14 07:01:53;;;;;;;27.25;17.48;;;4.30;1.00;;;;;;5134522;27;20223;-83
2022/03/14 07:04:21;;;;;;;24.13;17.20;;;4.30;1.00;;;;;;5132474;27;20242;-81
2022/03/14 07:06:47;;;;;;;24.50;16.48;;;4.50;1.00;;;;;;5130923;27;21003;-82
2022/03/14 07:09:15;;;;;;;20.63;15.95;;;4.60;1.00;;;;;;5131647;27;20266;-82
2022/03/14 07:11:43;;;;;;;24.20;16.88;;;4.70;1.00;;;;;;5129850;27;20395;-80
2022/03/14 07:14:13;;;;;;;22.13;16.15;;;4.80;1.00;;;;;;5149690;27;20236;-83
2022/03/14 07:16:46;;;;;;;26.88;18.63;;;5.00;1.00;;;;;;5151713;27;20223;-80
2022/03/14 07:19:13;;;;;;;24.58;17.30;;;5.20;1.00;;;;;;5162945;27;20298;-82
2022/03/14 07:21:40;;;;;;;27.38;16.92;;;5.40;1.00;;;;;;5157315;27;20210;-81
2022/03/14 07:24:08;;;;;;;23.80;16.98;;;5.60;1.00;;;;;;5153221;27;20795;-83
2022/03/14 07:26:35;;;;;;;25.33;17.92;;;5.70;1.00;;;;;;5154179;27;20208;-83
2022/03/14 07:29:03;;;;;;;27.10;17.30;;;5.80;1.00;;;;;;5154754;27;20299;-83
2022/03/14 07:31:30;;;;;;;20.35;16.38;;;5.90;1.00;;;;;;5154420;27;20206;-82
2022/03/14 07:33:57;;;;;;;21.30;17.20;;;6.00;1.00;;;;;;5154804;27;20219;-83
2022/03/14 07:36:24;;;;;;;23.30;16.40;;;6.10;1.00;;;;;;5151630;27;20229;-82
2022/03/14 07:38:51;;;;;;;19.30;15.60;;;6.10;1.00;;;;;;5148031;27;20283;-80
2022/03/14 07:41:18;;;;;;;21.92;16.20;;;6.20;1.00;;;;;;5131319;27;20261;-80
2022/03/14 07:43:45;;;;;;;20.33;16.27;;;6.20;1.00;;;;;;5131614;27;20263;-81
2022/03/14 07:46:13;;;;;;;20.38;15.90;;;6.30;1.00;;;;;;5128399;27;20207;-82
2022/03/14 07:48:40;;;;;;;21.40;17.05;;;6.40;1.00;;;;;;5132898;27;20223;-81
2022/03/14 07:51:08;;;;;;;19.45;16.38;;;6.50;1.00;;;;;;5128562;27;20219;-81
2022/03/14 07:53:35;;;;;;;21.45;17.75;;;6.70;1.00;;;;;;5144899;27;20267;-80
2022/03/14 07:56:02;;;;;;;22.90;17.65;;;6.80;1.00;;;;;;5151621;27;20222;-81
2022/03/14 07:58:29;;;;;;;19.20;15.32;;;6.90;1.00;;;;;;5156160;27;20211;-82
2022/03/14 08:00:56;;;;;;;21.05;16.63;;;7.00;1.00;;;;;;5145987;27;20227;-81
2022/03/14 08:03:24;;;;;;;19.08;15.50;;;7.20;1.00;;;;;;5130381;27;20280;-81
2022/03/14 08:05:53;;;;;;;19.30;16.00;;;7.30;1.00;;;;;;5139004;27;20215;-81
2022/03/14 08:08:20;;;;;;;22.13;16.60;;;7.40;1.00;;;;;;5129723;27;20227;-81
2022/03/14 08:10:47;;;;;;;18.15;14.80;;;7.50;1.00;;;;;;5136373;27;20227;-82
2022/03/14 08:13:14;;;;;;;20.70;14.80;;;7.60;1.00;;;;;;5130015;27;20223;-82
2022/03/14 08:15:41;;;;;;;20.70;15.63;;;7.60;1.00;;;;;;5131038;27;20226;-81
2022/03/14 08:18:10;;;;;;;21.38;16.10;;;7.60;1.00;;;;;;5146451;27;20226;-81
2022/03/14 08:20:38;;;;;;;21.35;16.00;;;7.70;1.00;;;;;;5152040;27;20227;-83
2022/03/14 08:23:05;;;;;;;20.40;15.63;;;7.80;1.00;;;;;;5153070;27;20267;-82
2022/03/14 08:25:35;;;;;;;18.67;14.13;;;8.00;1.00;;;;;;5155977;27;20204;-82
2022/03/14 08:28:02;;;;;;;21.05;15.18;;;8.10;1.00;;;;;;5156274;27;20226;-81
2022/03/14 08:30:29;;;;;;;18.17;15.57;;;8.20;1.00;;;;;;5160180;27;20203;-81
2022/03/14 08:32:57;;;;;;;22.27;16.17;;;8.30;1.00;;;;;;5151878;27;20226;-83
2022/03/14 08:35:26;;;;;;;21.38;14.52;;;8.40;1.00;;;;;;5153791;27;20227;-83
2022/03/14 08:37:56;;;;;;;23.63;15.50;;;8.60;1.00;;;;;;5146125;27;20235;-81
2022/03/14 08:40:24;;;;;;;16.10;13.18;;;8.80;1.00;;;;;;5159314;27;20230;-82
2022/03/14 08:42:52;;;;;;;15.73;13.15;;;9.00;1.00;;;;;;5156723;27;20213;-81
2022/03/14 08:45:19;;;;;;;16.10;12.85;;;9.10;1.00;;;;;;5149423;27;20208;-81
2022/03/14 08:47:46;;;;;;;15.83;14.17;;;9.10;1.00;;;;;;5156261;27;20221;-78
2022/03/14 08:50:14;;;;;;;19.02;13.48;;;9.10;1.00;;;;;;5145282;27;20409;-79
2022/03/14 08:52:41;;;;;;;18.77;13.90;;;9.20;1.00;;;;;;5151213;27;20229;-79
2022/03/14 08:55:10;;;;;;;17.00;14.20;;;9.30;1.00;;;;;;5146799;27;20398;-80
2022/03/14 08:57:36;;;;;;;17.20;13.98;;;9.40;1.00;;;;;;5152758;27;20501;-82
2022/03/14 09:00:04;;;;;;;16.03;14.43;;;9.40;1.00;;;;;;5154062;27;20221;-80
2022/03/14 09:02:31;;;;;;;15.57;13.53;;;9.50;1.00;;;;;;5155517;27;20425;-81
2022/03/14 09:04:58;;;;;;;19.60;13.23;;;9.70;1.00;;;;;;5149731;27;20416;-80
2022/03/14 09:07:25;;;;;;;19.13;13.87;;;10.00;1.00;;;;;;5150734;27;20546;-79
2022/03/14 09:09:52;;;;;;;13.97;12.47;;;10.40;1.00;;;;;;5145014;27;20399;-80
2022/03/14 09:12:20;;;;;;;16.53;13.00;;;10.90;1.00;;;;;;5155810;27;20483;-83
2022/03/14 09:14:48;;;;;;;12.43;10.90;;;11.70;1.00;;;;;;5150372;27;20537;-83
2022/03/14 09:17:15;;;;;;;15.20;12.30;;;12.30;1.00;;;;;;5146017;27;20457;-83
2022/03/14 09:19:42;;;;;;;13.80;11.43;;;13.10;1.00;;;;;;5152784;27;20427;-84
2022/03/14 09:22:10;;;;;;;13.77;12.13;;;14.00;1.00;;;;;;5146782;27;20417;-84
2022/03/14 09:24:38;;;;;;;13.47;12.03;;;15.10;1.00;;;;;;5148660;27;20476;-83
2022/03/14 09:27:05;;;;;;;12.73;11.53;;;16.00;1.00;;;;;;5143939;27;20414;-85
2022/03/14 09:29:34;;;;;;;13.20;11.80;;;16.60;1.00;;;;;;5150043;27;20440;-83
2022/03/14 09:32:01;;;;;;;14.20;12.27;;;16.70;1.00;;;;;;5145987;27;20435;-83
2022/03/14 09:34:27;;;;;;;13.13;11.80;;;16.90;1.00;;;;;;5141058;27;20485;-81
2022/03/14 09:36:55;;;;;;;12.93;11.70;;;17.00;1.00;;;;;;5132980;27;20467;-82
2022/03/14 09:39:22;;;;;;;13.77;12.40;;;17.30;1.00;;;;;;5112273;27;20464;-81
2022/03/14 09:41:50;;;;;;;12.50;11.20;;;17.70;1.00;;;;;;5117149;27;20556;-82
2022/03/14 09:44:20;;;;;;;16.47;12.23;;;17.60;1.00;;;;;;5116181;27;20500;-83
2022/03/14 09:46:49;;;;;;;13.70;11.60;;;17.30;1.00;;;;;;5111839;27;20456;-84
2022/03/14 09:49:17;;;;;;;14.90;13.00;;;17.90;1.00;;;;;;5108200;27;20470;-80
2022/03/14 09:51:44;;;;;;;16.17;14.53;;;18.80;1.00;;;;;;5110371;27;20477;-80
2022/03/14 09:54:12;;;;;;;14.80;12.90;;;19.50;1.00;;;;;;5116231;27;20426;-80
2022/03/14 09:56:41;;;;;;;13.40;12.00;;;19.60;1.00;;;;;;5116187;27;20561;-80
2022/03/14 09:59:10;;;;;;;12.63;11.40;;;19.90;1.00;;;;;;5116077;27;21188;-79
2022/03/14 10:01:37;;;;;;;13.00;11.60;;;20.40;1.00;;;;;;5111997;27;20467;-80
2022/03/14 10:04:07;;;;;;;16.17;13.07;;;21.00;1.00;;;;;;5112611;27;21118;-80
2022/03/14 10:06:34;;;;;;;13.63;12.23;;;20.60;1.00;;;;;;5117717;27;20455;-80
2022/03/14 10:09:01;;;;;;;14.03;12.63;;;19.40;1.00;;;;;;5130285;27;20514;-80
2022/03/14 10:11:29;;;;;;;13.20;11.80;;;19.60;1.00;;;;;;5123766;27;21932;-81
2022/03/14 10:13:56;;;;;;;12.57;11.27;;;19.90;1.00;;;;;;5118600;27;20658;-80
2022/03/14 10:16:24;;;;;;;12.53;11.23;;;20.10;1.00;;;;;;5119579;27;21841;-79
2022/03/14 10:18:53;;;;;;;11.07;9.97;;;20.50;1.00;;;;;;5115389;27;20453;-81
2022/03/14 10:21:32;;;;;;;13.33;11.17;;;21.20;1.00;;;;;;5121632;27;20456;-80
2022/03/14 10:24:05;;;;;;;14.30;10.90;;;21.70;1.00;;;;;;5111973;27;20492;-82
2022/03/14 10:26:34;;;;;;;12.43;10.40;;;22.50;1.00;;;;;;5119507;27;20581;-82
2022/03/14 10:29:02;;;;;;;17.33;11.00;;;22.50;1.00;;;;;;5119003;27;20512;-84
2022/03/14 10:31:31;;;;;;;16.00;11.53;;;21.50;1.00;;;;;;5113652;27;20438;-82
2022/03/14 10:34:03;;;;;;;12.90;11.37;;;21.90;1.00;;;;;;5126135;27;20440;-84
2022/03/14 10:36:45;;;;;;;13.27;11.87;;;22.20;1.00;;;;;;5127929;27;20839;-84
2022/03/14 10:39:25;;;;;;;11.93;10.83;;;22.10;1.00;;;;;;5132892;27;20543;-83
2022/03/14 10:42:04;;;;;;;14.30;12.00;;;22.30;1.00;;;;;;5136016;27;20462;-80
2022/03/14 10:44:31;;;;;;;13.23;11.93;;;22.60;1.00;;;;;;5147142;27;20393;-80
2022/03/14 10:46:59;;;;;;;13.17;11.87;;;23.00;1.00;;;;;;5146135;27;20421;-81
2022/03/14 10:49:30;;;;;;;11.73;10.53;;;22.70;1.00;;;;;;5136028;27;20611;-80
2022/03/14 10:51:59;;;;;;;12.87;11.53;;;22.20;1.00;;;;;;5142486;27;20558;-84
2022/03/14 10:54:28;;;;;;;17.13;11.17;;;21.90;1.00;;;;;;5136967;27;21289;-85
2022/03/14 10:57:07;;;;;;;13.07;11.43;;;21.80;1.00;;;;;;5135873;27;22204;-84
2022/03/14 10:59:39;;;;;;;12.80;10.77;;;22.80;1.00;;;;;;5131660;27;20560;-84
2022/03/14 11:02:08;;;;;;;12.30;11.10;;;23.70;1.00;;;;;;5130751;27;20441;-85
2022/03/14 11:04:43;;;;;;;13.00;10.83;;;24.40;1.00;;;;;;5132526;27;20503;-84
2022/03/14 11:07:12;;;;;;;13.63;12.33;;;24.70;1.00;;;;;;5126734;27;20452;-83
2022/03/14 11:09:40;;;;;;;12.70;11.53;;;24.70;1.00;;;;;;5131055;27;20530;-85
2022/03/14 11:12:08;;;;;;;13.83;10.73;;;24.90;1.00;;;;;;5127652;27;20446;-85
2022/03/14 11:14:35;;;;;;;11.67;10.60;;;24.00;1.00;;;;;;5132591;27;21042;-83
2022/03/14 11:17:13;;;;;;;13.40;12.10;;;24.20;1.00;;;;;;5135913;27;20492;-83
2022/03/14 11:19:41;;;;;;;13.03;11.77;;;24.30;1.00;;;;;;5155891;27;20425;-85
2022/03/14 11:22:12;;;;;;;12.00;10.90;;;24.20;1.00;;;;;;5152657;27;20505;-84
2022/03/14 11:24:44;;;;;;;12.73;11.43;;;24.20;1.00;;;;;;5147498;27;20470;-83
2022/03/14 11:27:19;;;;;;;13.63;12.23;;;24.60;1.00;;;;;;5129188;27;20454;-84
2022/03/14 11:29:48;;;;;;;13.23;11.97;;;23.80;1.00;;;;;;5131466;27;20429;-83
2022/03/14 11:32:17;;;;;;;12.87;11.67;;;23.20;1.00;;;;;;5125946;27;20568;-83
2022/03/14 11:34:45;;;;;;;14.30;12.20;;;23.10;1.00;;;;;;5129917;27;20457;-84
2022/03/14 11:37:14;;;;;;;14.60;12.80;;;23.00;1.00;;;;;;5131438;27;20409;-84
2022/03/14 11:39:41;;;;;;;14.17;12.63;;;23.70;1.00;;;;;;5128336;27;20498;-84
2022/03/14 11:42:09;;;;;;;13.17;11.87;;;24.50;1.00;;;;;;5127726;27;20541;-83
2022/03/14 11:44:37;;;;;;;13.33;12.03;;;25.00;1.00;;;;;;5128613;27;20442;-84
2022/03/14 11:47:05;;;;;;;13.80;12.57;;;24.00;1.00;;;;;;5132511;27;20498;-84
2022/03/14 11:49:32;;;;;;;14.13;12.83;;;22.70;1.00;;;;;;5127224;27;20398;-83
2022/03/14 11:52:10;;;;;;;12.33;11.20;;;21.40;1.00;;;;;;5124147;27;20421;-83
2022/03/14 11:54:43;;;;;;;13.77;12.17;;;20.10;1.00;;;;;;5133669;27;21078;-83
2022/03/14 11:57:12;;;;;;;11.30;10.20;;;20.40;1.00;;;;;;5143788;27;20418;-83
2022/03/14 11:59:39;;;;;;;12.13;11.03;;;22.30;1.00;;;;;;5146727;27;20486;-83
2022/03/14 12:02:07;;;;;;;13.53;12.17;;;23.60;1.00;;;;;;5149540;27;20444;-84
2022/03/14 12:04:36;;;;;;;12.97;11.73;;;25.30;1.00;;;;;;5150000;27;20403;-83
2022/03/14 12:07:11;;;;;;;12.90;11.60;;;26.20;1.00;;;;;;5139432;27;20461;-82
2022/03/14 12:09:52;;;;;;;12.10;11.10;;;26.00;1.00;;;;;;5129046;27;20528;-83
2022/03/14 12:12:32;;;;;;;13.30;12.10;;;24.50;1.00;;;;;;5127613;27;21166;-84
2022/03/14 12:15:04;;;;;;;12.40;11.40;;;24.20;1.00;;;;;;5134349;27;20434;-84
2022/03/14 12:17:45;;;;;;;12.30;11.30;;;23.70;1.00;;;;;;5130869;27;20436;-84
2022/03/14 12:20:14;;;;;;;12.83;11.60;;;23.80;1.00;;;;;;5138979;27;20461;-83
2022/03/14 12:22:46;;;;;;;12.87;11.60;;;23.80;1.00;;;;;;5140192;27;20482;-83
2022/03/14 12:25:42;;;;;;;11.60;10.30;;;22.60;1.00;;;;;;5132383;27;20445;-83
2022/03/14 12:28:32;;;;;;;12.13;11.03;;;21.10;1.00;;;;;;5131966;27;20453;-83
2022/03/14 12:31:15;;;;;;;13.40;12.13;;;20.50;1.00;;;;;;5140536;27;20410;-83
2022/03/14 12:33:44;;;;;;;14.37;11.63;;;20.10;1.00;;;;;;5144428;27;20468;-83
2022/03/14 12:36:33;;;;;;;13.30;12.10;;;19.60;1.00;;;;;;5138765;27;20415;-82
2022/03/14 12:39:22;;;;;;;13.67;12.40;;;18.60;1.00;;;;;;5125782;27;20494;-82
2022/03/14 12:41:51;;;;;;;13.80;12.43;;;17.90;1.00;;;;;;5122244;27;20527;-83
2022/03/14 12:44:22;;;;;;;15.33;11.40;;;17.70;1.00;;;;;;5138659;27;20482;-83
2022/03/14 12:46:51;;;;;;;14.10;12.80;;;17.70;1.00;;;;;;5129002;27;20445;-84
2022/03/14 12:49:26;;;;;;;13.77;12.33;;;17.30;1.00;;;;;;5125988;27;20465;-83
2022/03/14 12:52:10;;;;;;;13.13;11.87;;;17.30;1.00;;;;;;5120391;27;20521;-83